Time;durP1;ratioP1;P1;durP2;ratioP2;P2;SDS_P1;SDS_P2;PMS_P1;PMS_P2;Temp;Humidity;BMP_temperature;BMP_pressure;BME280_temperature;BME280_humidity;BME280_pressure;Samples;Min_cycle;Max_cycle;Signal;HPM_P1;HPM_P2
2021/08/18 00:02:09;;;;;;;10.35;5.63;;;;;;;19.43;66.54;96122.16;5116066;28;20062;-61
2021/08/18 00:04:35;;;;;;;8.43;6.20;;;;;;;19.28;67.32;96122.44;5116226;28;20051;-63
2021/08/18 00:07:00;;;;;;;9.35;5.90;;;;;;;19.23;67.87;96110.50;5116116;28;20020;-61
2021/08/18 00:09:26;;;;;;;8.35;6.07;;;;;;;19.03;69.71;96102.31;5115848;28;20518;-62
2021/08/18 00:11:51;;;;;;;11.70;6.20;;;;;;;18.92;69.89;96089.91;5115874;28;20117;-62
2021/08/18 00:14:17;;;;;;;9.90;5.85;;;;;;;18.82;69.85;96087.97;5115983;28;20373;-61
2021/08/18 00:16:43;;;;;;;9.95;6.07;;;;;;;18.89;69.57;96080.38;5115891;28;20026;-61
2021/08/18 00:19:08;;;;;;;11.30;6.18;;;;;;;18.96;69.06;96078.09;5115793;28;20030;-62
2021/08/18 00:21:34;;;;;;;9.00;5.75;;;;;;;18.86;69.84;96080.63;5115843;28;20055;-61
2021/08/18 00:23:59;;;;;;;6.57;5.30;;;;;;;18.81;69.42;96070.41;5115644;28;20035;-62
2021/08/18 00:26:28;;;;;;;10.98;6.70;;;;;;;18.82;69.20;96076.56;5115646;28;20027;-61
2021/08/18 00:28:54;;;;;;;9.25;5.60;;;;;;;18.84;69.65;96068.47;5115713;28;20020;-62
2021/08/18 00:31:20;;;;;;;7.97;5.95;;;;;;;18.87;69.50;96062.94;5115520;28;20030;-60
2021/08/18 00:33:47;;;;;;;9.00;6.18;;;;;;;18.84;68.86;96055.22;5115657;28;20419;-63
2021/08/18 00:36:12;;;;;;;10.48;5.57;;;;;;;18.90;68.60;96054.75;5115505;28;20081;-62
2021/08/18 00:38:38;;;;;;;7.88;5.82;;;;;;;18.97;68.07;96058.59;5115357;28;20020;-62
2021/08/18 00:41:03;;;;;;;9.05;5.35;;;;;;;19.02;68.18;96058.22;5115353;28;20016;-60
2021/08/18 00:43:29;;;;;;;9.82;5.47;;;;;;;19.03;67.72;96057.25;5115309;28;20031;-60
2021/08/18 00:45:54;;;;;;;9.90;5.78;;;;;;;19.06;67.50;96054.34;5115288;28;20028;-61
2021/08/18 00:48:20;;;;;;;8.80;5.88;;;;;;;19.01;67.54;96049.44;5115343;28;20027;-61
2021/08/18 00:50:46;;;;;;;9.65;5.95;;;;;;;19.01;67.28;96040.63;5115092;28;20549;-61
2021/08/18 00:53:13;;;;;;;7.40;5.47;;;;;;;19.03;67.40;96049.31;5115189;28;20447;-60
2021/08/18 00:55:39;;;;;;;9.57;6.03;;;;;;;19.03;67.32;96052.78;5115123;28;20015;-62
2021/08/18 00:58:05;;;;;;;7.35;5.50;;;;;;;18.94;67.15;96049.06;5115105;28;20016;-61
2021/08/18 01:00:30;;;;;;;7.35;5.60;;;;;;;18.91;67.41;96044.00;5115014;28;20034;-61
2021/08/18 01:02:57;;;;;;;8.07;5.60;;;;;;;18.89;67.26;96050.41;5114726;28;20068;-60
2021/08/18 01:05:26;;;;;;;7.60;5.80;;;;;;;18.92;67.40;96051.00;5114860;28;20477;-60
2021/08/18 01:07:54;;;;;;;7.35;4.65;;;;;;;18.98;66.66;96056.75;5114860;28;20053;-60
2021/08/18 01:10:22;;;;;;;7.00;5.63;;;;;;;19.02;66.72;96043.16;5114509;28;20051;-61
2021/08/18 01:12:49;;;;;;;11.18;6.10;;;;;;;19.04;66.88;96043.03;5114698;28;20024;-62
2021/08/18 01:15:17;;;;;;;6.82;4.97;;;;;;;19.04;66.39;96045.69;5114686;28;20076;-61
2021/08/18 01:17:45;;;;;;;7.72;5.15;;;;;;;19.01;66.42;96036.16;5114727;28;20483;-61
2021/08/18 01:20:14;;;;;;;10.90;5.97;;;;;;;18.94;66.56;96043.75;5114715;28;20024;-61
2021/08/18 01:22:40;;;;;;;8.60;5.32;;;;;;;18.88;66.29;96038.97;5114505;28;20031;-60
2021/08/18 01:25:07;;;;;;;8.45;5.57;;;;;;;18.95;66.53;96044.59;5114437;28;20020;-60
2021/08/18 01:27:35;;;;;;;8.32;5.40;;;;;;;18.89;66.10;96043.31;5114452;28;20046;-62
2021/08/18 01:30:01;;;;;;;7.30;5.88;;;;;;;18.89;66.41;96045.09;5096120;28;20106;-60
2021/08/18 01:32:26;;;;;;;8.05;5.28;;;;;;;18.85;66.07;96041.88;5114547;28;20090;-62
2021/08/18 01:34:52;;;;;;;6.05;5.45;;;;;;;18.82;66.13;96031.50;5114371;28;20030;-61
2021/08/18 01:37:17;;;;;;;10.07;5.25;;;;;;;18.80;65.97;96036.06;5114315;28;20035;-62
2021/08/18 01:39:43;;;;;;;7.65;5.80;;;;;;;18.73;66.15;96026.94;5114243;28;20465;-61
2021/08/18 01:42:09;;;;;;;6.93;5.93;;;;;;;18.71;66.00;96027.06;5114255;28;20034;-61
2021/08/18 01:44:34;;;;;;;8.40;4.88;;;;;;;18.73;65.94;96024.28;5114276;28;20023;-62
2021/08/18 01:47:00;;;;;;;7.90;5.82;;;;;;;18.69;65.96;96024.53;5114114;28;20176;-62
2021/08/18 01:49:27;;;;;;;7.07;5.18;;;;;;;18.73;65.69;96029.59;5114246;28;20024;-62
2021/08/18 01:51:55;;;;;;;17.65;6.03;;;;;;;18.73;65.72;96027.78;5113927;28;20028;-61
2021/08/18 01:54:20;;;;;;;7.60;4.97;;;;;;;18.67;65.60;96020.31;5113946;28;20031;-62
2021/08/18 01:56:46;;;;;;;7.72;5.43;;;;;;;18.59;65.42;96009.47;5114087;28;20031;-62
2021/08/18 01:59:11;;;;;;;8.50;5.68;;;;;;;18.60;65.76;96009.34;5113963;28;20107;-60
2021/08/18 02:01:37;;;;;;;8.55;5.68;;;;;;;18.53;65.69;96018.75;5113887;28;20031;-62
2021/08/18 02:04:03;;;;;;;9.10;5.85;;;;;;;18.44;65.85;96007.94;5113973;28;20028;-61
2021/08/18 02:06:31;;;;;;;8.38;5.45;;;;;;;18.33;66.68;96013.22;5113902;28;20036;-61
2021/08/18 02:08:56;;;;;;;7.80;5.00;;;;;;;18.29;66.38;96012.63;5113548;28;20038;-62
2021/08/18 02:11:22;;;;;;;6.20;5.60;;;;;;;18.25;66.64;96011.19;5113739;28;20035;-61
2021/08/18 02:13:48;;;;;;;8.20;5.35;;;;;;;18.14;67.41;96013.81;5113146;28;20034;-62
2021/08/18 02:16:13;;;;;;;8.68;6.15;;;;;;;18.09;67.96;96026.53;5113634;28;20031;-62
2021/08/18 02:18:39;;;;;;;8.00;5.70;;;;;;;18.08;68.05;96024.81;5113621;28;20023;-60
2021/08/18 02:21:04;;;;;;;7.95;5.60;;;;;;;18.05;67.90;96023.25;5113732;28;20463;-60
2021/08/18 02:23:30;;;;;;;11.55;6.50;;;;;;;17.98;68.26;96028.19;5113695;28;20441;-61
2021/08/18 02:25:55;;;;;;;8.30;5.82;;;;;;;17.91;68.43;96032.28;5113579;28;20016;-62
2021/08/18 02:28:21;;;;;;;9.45;6.07;;;;;;;17.96;67.91;96026.59;5113588;28;20076;-61
2021/08/18 02:30:47;;;;;;;7.55;5.25;;;;;;;18.04;67.52;96024.22;5113488;28;20037;-60
2021/08/18 02:33:13;;;;;;;6.45;4.95;;;;;;;17.98;67.63;96024.69;5113510;28;20028;-62
2021/08/18 02:35:39;;;;;;;8.18;5.45;;;;;;;18.00;67.58;96026.25;5113448;28;20076;-61
2021/08/18 02:38:06;;;;;;;8.75;5.00;;;;;;;18.08;67.59;96027.47;5113462;28;20661;-61
2021/08/18 02:40:33;;;;;;;7.13;5.22;;;;;;;18.14;67.13;96032.31;5113485;28;20022;-59
2021/08/18 02:43:00;;;;;;;8.50;5.38;;;;;;;18.16;67.56;96030.41;5113433;28;20020;-62
2021/08/18 02:45:28;;;;;;;8.05;5.13;;;;;;;18.11;68.08;96033.41;5113388;28;20051;-62
2021/08/18 02:47:54;;;;;;;8.88;5.65;;;;;;;18.10;67.41;96034.38;5113476;28;20026;-62
2021/08/18 02:50:22;;;;;;;8.95;4.90;;;;;;;18.14;66.85;96040.25;5113203;28;20448;-61
2021/08/18 02:52:48;;;;;;;6.90;5.28;;;;;;;18.17;67.33;96040.03;5113354;28;20028;-61
2021/08/18 02:55:14;;;;;;;13.40;6.15;;;;;;;18.10;67.73;96038.78;5113368;28;20072;-61
2021/08/18 02:57:39;;;;;;;7.55;5.60;;;;;;;18.11;67.71;96025.47;5113402;28;20020;-62
2021/08/18 03:00:07;;;;;;;9.80;5.18;;;;;;;18.17;68.02;96027.66;5113329;28;20020;-61
2021/08/18 03:02:32;;;;;;;8.55;4.95;;;;;;;18.14;67.95;96032.31;5113154;28;20028;-61
2021/08/18 03:04:58;;;;;;;6.32;5.65;;;;;;;18.04;68.36;96030.38;5113144;28;20027;-60
2021/08/18 03:07:24;;;;;;;10.00;5.78;;;;;;;18.05;69.15;96040.00;5113295;28;20099;-61
2021/08/18 03:09:51;;;;;;;8.55;6.40;;;;;;;18.02;68.87;96042.88;5113025;28;20185;-61
2021/08/18 03:12:16;;;;;;;9.50;6.22;;;;;;;17.96;68.73;96040.69;5113008;28;20495;-62
2021/08/18 03:14:42;;;;;;;8.27;6.25;;;;;;;17.99;68.93;96037.81;5113006;28;20020;-60
2021/08/18 03:17:07;;;;;;;8.95;5.50;;;;;;;18.02;68.72;96034.06;5094897;28;20034;-60
2021/08/18 03:19:33;;;;;;;10.43;4.55;;;;;;;18.01;68.52;96035.91;5113180;28;20098;-61
2021/08/18 03:21:59;;;;;;;6.65;5.05;;;;;;;18.02;68.68;96034.06;5113251;28;20023;-60
2021/08/18 03:24:25;;;;;;;8.18;5.32;;;;;;;18.02;68.54;96034.06;5114195;28;20020;-60
2021/08/18 03:26:50;;;;;;;8.13;5.75;;;;;;;18.03;68.70;96035.78;5116834;28;20465;-60
2021/08/18 03:29:16;;;;;;;17.95;5.70;;;;;;;18.09;68.64;96039.75;5116836;28;20029;-60
2021/08/18 03:31:41;;;;;;;11.85;5.63;;;;;;;18.03;68.74;96033.13;5116600;28;20115;-62
2021/08/18 03:34:07;;;;;;;7.78;5.50;;;;;;;18.02;68.86;96039.38;5116801;28;20035;-60
2021/08/18 03:36:32;;;;;;;8.40;5.78;;;;;;;18.01;69.04;96045.63;5116644;28;20027;-61
2021/08/18 03:38:58;;;;;;;6.97;5.93;;;;;;;18.06;68.74;96051.41;5116613;28;20024;-60
2021/08/18 03:41:24;;;;;;;10.80;5.70;;;;;;;18.12;68.51;96048.31;5116530;28;20034;-62
2021/08/18 03:43:50;;;;;;;9.10;5.20;;;;;;;18.19;68.71;96048.72;5116601;28;20098;-60
2021/08/18 03:46:15;;;;;;;9.10;6.00;;;;;;;18.21;67.99;96059.19;5116539;28;20031;-62
2021/08/18 03:48:41;;;;;;;11.35;5.70;;;;;;;18.31;68.26;96062.81;5116497;28;20034;-60
2021/08/18 03:51:06;;;;;;;9.20;5.25;;;;;;;18.31;68.64;96062.81;5116368;28;20035;-62
2021/08/18 03:53:32;;;;;;;6.05;5.45;;;;;;;18.29;68.48;96062.06;5116305;28;20023;-62
2021/08/18 03:55:57;;;;;;;7.25;5.07;;;;;;;18.34;68.36;96070.50;5116236;28;20042;-61
2021/08/18 03:58:23;;;;;;;7.65;5.80;;;;;;;18.46;68.00;96078.47;5116290;28;20059;-61
2021/08/18 04:00:49;;;;;;;8.38;5.30;;;;;;;18.48;68.58;96085.31;5116162;28;20019;-61
2021/08/18 04:03:15;;;;;;;7.55;5.55;;;;;;;18.47;68.63;96077.47;5116112;28;20377;-60
2021/08/18 04:05:40;;;;;;;8.50;5.70;;;;;;;18.53;68.36;96079.66;5116216;28;20040;-61
2021/08/18 04:08:08;;;;;;;7.15;5.68;;;;;;;18.75;67.81;96085.94;5116047;28;20031;-62
2021/08/18 04:10:37;;;;;;;10.05;5.55;;;;;;;18.91;67.52;96073.16;5115806;28;20047;-59
2021/08/18 04:13:03;;;;;;;12.63;5.85;;;;;;;19.13;67.37;96083.88;5115959;28;20462;-62
2021/08/18 04:15:34;;;;;;;7.80;5.18;;;;;;;19.37;66.70;96080.22;5115890;28;20035;-60
2021/08/18 04:18:00;;;;;;;;;;;;;;;19.67;66.31;96079.53;5116356;28;20028;-61
2021/08/18 04:20:25;;;;;;;10.02;5.70;;;;;;;19.88;65.57;96080.50;5115866;28;20429;-62
2021/08/18 04:22:51;;;;;;;6.45;5.03;;;;;;;19.97;65.38;96082.41;5115744;28;20458;-60
2021/08/18 04:25:19;;;;;;;7.90;5.55;;;;;;;19.92;64.81;96082.78;5115714;28;20024;-60
2021/08/18 04:27:45;;;;;;;7.70;5.82;;;;;;;19.92;64.95;96085.44;5115740;28;20016;-62
2021/08/18 04:30:13;;;;;;;7.03;5.47;;;;;;;19.98;64.93;96073.47;5115639;28;20023;-60
2021/08/18 04:32:39;;;;;;;9.02;6.05;;;;;;;19.98;65.02;96077.94;5115555;28;20372;-62
2021/08/18 04:35:07;;;;;;;7.97;5.47;;;;;;;20.06;65.06;96080.81;5115538;28;20018;-60
2021/08/18 04:37:35;;;;;;;6.18;4.65;;;;;;;20.15;64.74;96084.50;5114873;28;20112;-61
2021/08/18 04:40:02;;;;;;;10.10;5.65;;;;;;;20.46;64.78;96089.88;5115418;28;20042;-60
2021/08/18 04:42:27;;;;;;;6.07;4.97;;;;;;;20.82;64.17;96082.34;5115376;28;20031;-62
2021/08/18 04:44:53;;;;;;;9.27;5.90;;;;;;;21.33;63.38;96084.22;5115495;28;20019;-61
2021/08/18 04:47:18;;;;;;;9.85;5.70;;;;;;;21.65;62.54;96087.63;5097344;28;20012;-62
2021/08/18 04:49:44;;;;;;;7.97;5.13;;;;;;;21.98;61.37;96087.38;5115298;28;20560;-62
2021/08/18 04:52:09;;;;;;;11.63;5.40;;;;;;;22.27;61.43;96095.31;5115135;28;20381;-61
2021/08/18 04:54:35;;;;;;;8.45;5.30;;;;;;;22.37;60.95;96105.13;5115200;28;20072;-62
2021/08/18 04:57:00;;;;;;;6.65;4.85;;;;;;;22.32;60.58;96103.75;5115018;28;20019;-60
2021/08/18 04:59:26;;;;;;;7.68;5.10;;;;;;;22.31;60.16;96114.53;5115123;28;20069;-61
2021/08/18 05:01:52;;;;;;;7.95;5.05;;;;;;;22.29;60.57;96119.16;5115043;28;20019;-61
2021/08/18 05:04:17;;;;;;;9.40;4.95;;;;;;;22.33;60.38;96110.75;5115019;28;20059;-62
2021/08/18 05:06:43;;;;;;;10.10;5.28;;;;;;;22.45;61.41;96119.41;5114886;28;20027;-60
2021/08/18 05:09:08;;;;;;;7.03;4.80;;;;;;;22.54;61.84;96120.38;5114752;28;20071;-62
2021/08/18 05:11:34;;;;;;;8.05;5.30;;;;;;;22.86;61.39;96123.69;5114871;28;20039;-62
2021/08/18 05:14:00;;;;;;;7.30;4.93;;;;;;;23.05;59.68;96130.75;5114864;28;20114;-62
2021/08/18 05:16:25;;;;;;;7.90;5.03;;;;;;;23.14;59.87;96137.03;5114756;28;20372;-61
2021/08/18 05:18:51;;;;;;;6.97;4.95;;;;;;;23.37;59.56;96135.84;5114678;28;20028;-62
2021/08/18 05:21:16;;;;;;;7.03;4.50;;;;;;;23.45;58.79;96147.44;5114655;28;20054;-62
2021/08/18 05:23:42;;;;;;;5.72;4.75;;;;;;;23.48;59.18;96147.16;5114656;28;20031;-62
2021/08/18 05:26:08;;;;;;;10.05;5.03;;;;;;;23.50;58.58;96157.66;5114501;28;20031;-61
2021/08/18 05:28:33;;;;;;;6.88;5.05;;;;;;;23.50;59.66;96163.00;5114640;28;20027;-59
2021/08/18 05:30:59;;;;;;;8.07;5.50;;;;;;;23.48;59.56;96165.81;5114350;28;20102;-60
2021/08/18 05:33:24;;;;;;;8.45;5.30;;;;;;;23.47;59.86;96179.31;5114438;28;20027;-60
2021/08/18 05:35:50;;;;;;;9.23;5.45;;;;;;;23.33;58.03;96170.78;5114464;28;20476;-60
2021/08/18 05:38:16;;;;;;;7.43;5.18;;;;;;;23.27;59.02;96176.69;5114325;28;20035;-60
2021/08/18 05:40:41;;;;;;;12.82;5.80;;;;;;;23.17;59.52;96163.41;5114235;28;20377;-60
2021/08/18 05:43:07;;;;;;;9.85;5.53;;;;;;;22.94;61.50;96155.78;5114303;28;20019;-60
2021/08/18 05:45:32;;;;;;;13.60;6.60;;;;;;;22.66;61.75;96144.22;5114240;28;20419;-62
2021/08/18 05:47:58;;;;;;;8.93;5.70;;;;;;;;;;5113333;28;20553;-61
2021/08/18 05:50:24;;;;;;;9.18;6.30;;;;;;;21.88;62.67;96106.00;5113971;28;20423;-60
2021/08/18 05:52:49;;;;;;;7.18;5.22;;;;;;;21.73;62.14;96094.91;5114139;28;20489;-61
2021/08/18 05:55:15;;;;;;;10.50;5.82;;;;;;;21.66;62.46;96082.16;5114073;28;20016;-60
2021/08/18 05:57:40;;;;;;;8.25;6.05;;;;;;;21.56;60.91;96060.03;5114089;28;20027;-62
2021/08/18 06:00:07;;;;;;;10.10;6.38;;;;;;;21.61;60.32;96065.75;5114041;28;20393;-60
2021/08/18 06:02:32;;;;;;;7.90;6.13;;;;;;;21.72;59.73;96102.03;5113772;28;20020;-61
2021/08/18 06:04:58;;;;;;;9.27;6.07;;;;;;;21.79;60.79;96135.13;5113842;28;20028;-60
2021/08/18 06:07:23;;;;;;;11.15;6.55;;;;;;;21.80;62.55;96138.66;5113845;28;20019;-61
2021/08/18 06:09:49;;;;;;;11.27;6.18;;;;;;;21.81;61.81;96141.16;5113574;28;20185;-62
2021/08/18 06:12:15;;;;;;;12.82;6.22;;;;;;;21.87;61.86;96126.47;5113684;28;20038;-60
2021/08/18 06:14:41;;;;;;;23.45;7.70;;;;;;;21.98;61.22;96135.28;5113700;28;20024;-59
2021/08/18 06:17:07;;;;;;;8.90;5.95;;;;;;;22.15;60.22;96139.91;5113639;28;20037;-60
2021/08/18 06:19:32;;;;;;;11.68;7.05;;;;;;;22.32;60.73;96148.16;5113610;28;20043;-62
2021/08/18 06:22:01;;;;;;;8.35;5.93;;;;;;;22.50;61.60;96147.44;5114029;28;20023;-60
2021/08/18 06:24:40;;;;;;;8.10;5.70;;;;;;;22.61;60.21;96142.00;5113727;28;20097;-60
2021/08/18 06:27:07;;;;;;;9.27;6.60;;;;;;;22.67;60.24;96135.25;5113594;28;20047;-60
2021/08/18 06:29:34;;;;;;;9.77;6.50;;;;;;;22.79;59.64;96135.91;5113516;28;20065;-60
2021/08/18 06:32:00;;;;;;;10.85;6.00;;;;;;;22.93;60.07;96134.59;5113500;28;20028;-61
2021/08/18 06:34:26;;;;;;;9.85;6.18;;;;;;;23.03;59.30;96139.91;5113493;28;20019;-61
2021/08/18 06:36:52;;;;;;;13.52;6.43;;;;;;;23.07;59.36;96143.94;5113626;28;20520;-60
2021/08/18 06:39:17;;;;;;;9.95;6.28;;;;;;;23.20;60.09;96147.13;5113388;28;20070;-62
2021/08/18 06:41:43;;;;;;;10.43;6.07;;;;;;;23.32;59.90;96150.44;5113374;28;20114;-61
2021/08/18 06:44:08;;;;;;;10.02;6.68;;;;;;;23.40;59.43;96144.41;5113304;28;20103;-61
2021/08/18 06:46:34;;;;;;;10.93;6.65;;;;;;;23.52;59.62;96142.34;5113491;28;20028;-62
2021/08/18 06:48:59;;;;;;;9.45;5.97;;;;;;;23.62;58.64;96138.81;5113464;28;20053;-61
2021/08/18 06:51:25;;;;;;;11.43;6.55;;;;;;;23.71;58.66;96149.41;5113431;28;20027;-60
2021/08/18 06:53:50;;;;;;;8.82;5.38;;;;;;;23.81;58.81;96143.97;5113267;28;20067;-60
2021/08/18 06:56:16;;;;;;;9.55;6.18;;;;;;;23.85;58.51;96142.72;5113343;28;20094;-61
2021/08/18 06:58:42;;;;;;;6.18;5.47;;;;;;;23.94;58.38;96146.31;5113333;28;20084;-62
2021/08/18 07:01:07;;;;;;;10.07;6.05;;;;;;;24.12;58.31;96150.78;5117474;28;20115;-60
2021/08/18 07:03:33;;;;;;;8.55;6.38;;;;;;;24.29;56.92;96142.97;5117345;28;20061;-61
2021/08/18 07:05:59;;;;;;;9.50;6.35;;;;;;;24.52;57.21;96147.78;5117344;28;20031;-60
2021/08/18 07:08:25;;;;;;;10.50;6.15;;;;;;;24.66;56.59;96136.53;5117396;28;20020;-62
2021/08/18 07:10:53;;;;;;;8.82;5.78;;;;;;;24.79;55.73;96145.97;5117077;28;20046;-60
2021/08/18 07:13:19;;;;;;;13.43;6.05;;;;;;;24.95;55.78;96145.28;5117181;28;20142;-62
2021/08/18 07:15:45;;;;;;;9.90;6.05;;;;;;;25.11;55.54;96148.00;5117040;28;20024;-62
2021/08/18 07:18:10;;;;;;;11.50;5.35;;;;;;;25.18;55.48;96153.56;5117065;28;20023;-60
2021/08/18 07:20:36;;;;;;;9.05;5.80;;;;;;;25.15;53.42;96158.41;5117006;28;20035;-59
2021/08/18 07:23:02;;;;;;;13.10;5.97;;;;;;;25.68;53.78;96166.34;5116922;28;20103;-62
2021/08/18 07:25:28;;;;;;;8.52;5.53;;;;;;;26.45;51.99;96156.41;5117042;28;20466;-61
2021/08/18 07:27:54;;;;;;;8.77;5.95;;;;;;;26.98;49.84;96161.41;5116771;28;20089;-62
2021/08/18 07:30:20;;;;;;;8.60;5.63;;;;;;;27.33;48.88;96164.63;5116650;28;20427;-60
2021/08/18 07:32:45;;;;;;;10.45;5.95;;;;;;;27.48;46.89;96166.63;5116875;28;20034;-61
2021/08/18 07:35:11;;;;;;;9.13;5.93;;;;;;;27.43;47.20;96159.09;5116753;28;20098;-60
2021/08/18 07:37:37;;;;;;;9.30;5.63;;;;;;;27.38;47.69;96153.38;5116655;28;20020;-60
2021/08/18 07:40:04;;;;;;;14.07;7.05;;;;;;;27.11;47.35;96148.28;5116622;28;20470;-61
2021/08/18 07:42:30;;;;;;;11.68;6.70;;;;;;;26.90;47.12;96146.13;5116653;28;20076;-62
2021/08/18 07:44:56;;;;;;;12.85;6.22;;;;;;;26.79;47.31;96150.00;5116469;28;20023;-62
2021/08/18 07:47:21;;;;;;;11.57;6.30;;;;;;;26.74;48.72;96147.00;5116600;28;20016;-62
2021/08/18 07:49:47;;;;;;;10.40;6.53;;;;;;;26.66;48.67;96153.22;5116442;28;20018;-60
2021/08/18 07:52:13;;;;;;;10.68;6.13;;;;;;;26.44;49.10;96150.22;5116247;28;20019;-62
2021/08/18 07:54:39;;;;;;;8.10;5.18;;;;;;;26.36;49.66;96163.63;5116257;28;20106;-60
2021/08/18 07:57:04;;;;;;;8.18;6.05;;;;;;;26.34;49.88;96160.28;5116302;28;20028;-60
2021/08/18 07:59:30;;;;;;;7.97;6.28;;;;;;;26.37;50.77;96152.72;5116263;28;20024;-60
2021/08/18 08:01:56;;;;;;;10.57;6.18;;;;;;;26.37;48.76;96149.22;5116378;28;20020;-61
2021/08/18 08:04:21;;;;;;;11.68;6.07;;;;;;;26.39;49.66;96152.56;5116179;28;20442;-61
2021/08/18 08:06:49;;;;;;;16.05;6.25;;;;;;;26.41;48.36;96155.91;5116093;28;20023;-60
2021/08/18 08:09:15;;;;;;;7.90;6.05;;;;;;;26.43;48.32;96153.06;5115797;28;20497;-61
2021/08/18 08:11:40;;;;;;;9.25;5.95;;;;;;;26.47;48.84;96151.72;5114978;28;20078;-60
2021/08/18 08:14:06;;;;;;;12.18;6.32;;;;;;;26.60;48.54;96152.06;5115947;28;20488;-60
2021/08/18 08:16:31;;;;;;;10.52;5.72;;;;;;;26.75;48.24;96148.66;5116004;28;20100;-60
2021/08/18 08:18:57;;;;;;;12.15;6.05;;;;;;;26.69;47.03;96146.66;5115811;28;20020;-62
2021/08/18 08:21:24;;;;;;;19.30;6.88;;;;;;;26.71;46.65;96139.28;5115809;28;20107;-60
2021/08/18 08:23:50;;;;;;;10.93;6.75;;;;;;;26.82;46.74;96143.47;5115611;28;20548;-61
2021/08/18 08:26:16;;;;;;;11.07;6.20;;;;;;;26.92;46.11;96144.13;5115737;28;20107;-61
2021/08/18 08:28:42;;;;;;;14.32;6.45;;;;;;;27.10;45.77;96143.94;5115760;28;20024;-60
2021/08/18 08:31:07;;;;;;;11.65;6.32;;;;;;;27.28;46.05;96148.22;5115585;28;20074;-62
2021/08/18 08:33:33;;;;;;;10.55;6.78;;;;;;;27.45;44.67;96150.84;5115706;28;20046;-62
2021/08/18 08:35:58;;;;;;;14.95;6.43;;;;;;;27.57;43.55;96141.38;5115654;28;20434;-61
2021/08/18 08:38:24;;;;;;;11.25;6.70;;;;;;;27.73;43.32;96135.13;5115712;28;20508;-61
2021/08/18 08:40:50;;;;;;;11.80;5.85;;;;;;;27.82;44.17;96141.28;5115443;28;20366;-61
2021/08/18 08:43:19;;;;;;;10.05;6.43;;;;;;;27.91;43.36;96136.69;5115338;28;20068;-63
2021/08/18 08:45:46;;;;;;;9.82;6.25;;;;;;;27.99;44.42;96136.63;5115372;28;20030;-61
2021/08/18 08:48:18;;;;;;;18.08;6.30;;;;;;;28.00;43.45;96134.78;5115290;28;20039;-62
2021/08/18 08:50:45;;;;;;;12.35;6.25;;;;;;;27.86;43.46;96131.00;5115289;28;20046;-62
2021/08/18 08:53:11;;;;;;;16.23;6.75;;;;;;;27.73;43.62;96132.44;5115172;28;20019;-61
2021/08/18 08:55:37;;;;;;;10.18;6.90;;;;;;;27.80;43.80;96132.56;5115207;28;20110;-61
2021/08/18 08:58:03;;;;;;;8.82;6.10;;;;;;;27.92;44.35;96130.31;5096888;28;20369;-62
2021/08/18 09:00:29;;;;;;;11.93;7.22;;;;;;;28.01;43.70;96128.38;5115036;28;20028;-62
2021/08/18 09:03:07;;;;;;;12.90;6.20;;;;;;;28.11;44.93;96126.31;5114925;28;20028;-61
2021/08/18 09:05:33;;;;;;;9.60;6.35;;;;;;;28.28;44.27;96118.09;5114945;28;20103;-62
2021/08/18 09:07:59;;;;;;;10.98;6.43;;;;;;;28.42;41.84;96121.91;5114923;28;20054;-62
2021/08/18 09:10:26;;;;;;;11.55;6.68;;;;;;;28.33;40.88;96122.97;5114591;28;20071;-61
2021/08/18 09:13:11;;;;;;;12.30;6.28;;;;;;;28.45;40.17;96128.75;5114827;28;20070;-62
2021/08/18 09:15:37;;;;;;;9.23;6.38;;;;;;;28.58;40.24;96120.91;5114869;28;20016;-61
2021/08/18 09:18:02;;;;;;;11.60;6.72;;;;;;;28.67;39.84;96121.66;5114826;28;20042;-62
2021/08/18 09:20:29;;;;;;;14.30;6.78;;;;;;;28.83;40.09;96119.84;5114612;28;20024;-61
2021/08/18 09:23:03;;;;;;;12.93;6.28;;;;;;;28.98;41.21;96115.31;5114423;28;20035;-61
2021/08/18 09:25:39;;;;;;;11.20;6.88;;;;;;;29.04;38.83;96118.28;5114647;28;20111;-62
2021/08/18 09:28:04;;;;;;;8.40;6.03;;;;;;;29.07;38.01;96124.13;5114535;28;20485;-62
2021/08/18 09:30:48;;;;;;;9.75;6.20;;;;;;;29.24;39.31;96116.69;5096068;28;20051;-60
2021/08/18 09:33:18;;;;;;;10.43;6.72;;;;;;;29.52;37.43;96112.44;5114372;28;20024;-61
2021/08/18 09:35:53;;;;;;;10.20;6.38;;;;;;;29.48;38.85;96112.00;5114492;28;20466;-61
2021/08/18 09:38:19;;;;;;;12.98;6.80;;;;;;;29.78;38.02;96108.44;5114393;28;20152;-60
2021/08/18 09:40:47;;;;;;;10.57;6.40;;;;;;;30.06;39.44;96104.97;5114321;28;20049;-60
2021/08/18 09:43:24;;;;;;;10.40;7.00;;;;;;;30.32;36.87;96100.88;5114296;28;20038;-61
2021/08/18 09:46:01;;;;;;;11.20;7.00;;;;;;;30.35;36.89;96096.97;5114239;28;20035;-61
2021/08/18 09:48:28;;;;;;;11.98;6.25;;;;;;;30.42;37.14;96097.84;5114396;28;20422;-60
2021/08/18 09:51:09;;;;;;;10.77;7.38;;;;;;;30.39;37.23;96093.69;5113986;28;20015;-61
2021/08/18 09:53:43;;;;;;;9.48;6.30;;;;;;;30.63;35.02;96091.56;5114125;28;20032;-61
2021/08/18 09:56:13;;;;;;;16.42;6.63;;;;;;;30.71;37.07;96084.34;5113938;28;20076;-61
2021/08/18 09:58:55;;;;;;;10.93;7.43;;;;;;;30.32;37.85;96091.94;5114065;28;20031;-62
2021/08/18 10:01:21;;;;;;;10.63;6.97;;;;;;;30.23;37.91;96083.16;5113986;28;20384;-60
2021/08/18 10:03:49;;;;;;;10.20;6.38;;;;;;;30.51;37.86;96087.75;5113943;28;20099;-60
2021/08/18 10:06:15;;;;;;;8.38;6.63;;;;;;;30.74;37.82;96083.97;5113865;28;20080;-60
2021/08/18 10:08:44;;;;;;;12.45;7.18;;;;;;;30.75;37.68;96088.31;5113698;28;20117;-61
2021/08/18 10:11:12;;;;;;;13.80;7.72;;;;;;;30.88;36.22;96072.25;5113684;28;20084;-60
2021/08/18 10:13:38;;;;;;;10.05;6.78;;;;;;;31.00;36.50;96077.91;5113886;28;20015;-60
2021/08/18 10:16:04;;;;;;;9.95;6.05;;;;;;;31.20;36.39;96070.94;5113670;28;20647;-60
2021/08/18 10:18:33;;;;;;;11.23;6.82;;;;;;;31.27;35.70;96078.03;5113632;28;20024;-60
2021/08/18 10:21:03;;;;;;;9.80;6.53;;;;;;;31.33;35.62;96070.19;5113598;28;20023;-62
2021/08/18 10:23:49;;;;;;;10.23;7.00;;;;;;;31.50;35.65;96070.66;5113555;28;20038;-62
2021/08/18 10:26:34;;;;;;;16.00;6.50;;;;;;;31.52;34.22;96064.00;5113709;28;20036;-61
2021/08/18 10:29:06;;;;;;;13.40;7.18;;;;;;;31.27;33.74;96069.94;5113580;28;20034;-62
2021/08/18 10:31:50;;;;;;;9.52;6.38;;;;;;;31.11;32.89;96060.31;5113543;28;20035;-61
2021/08/18 10:34:22;;;;;;;10.75;7.05;;;;;;;31.37;33.72;96063.34;5112671;28;20036;-63
2021/08/18 10:36:48;;;;;;;14.52;6.43;;;;;;;31.59;33.92;96052.41;5113426;28;20027;-61
2021/08/18 10:39:41;;;;;;;11.25;7.43;;;;;;;31.64;31.32;96055.34;5113501;28;20542;-61
2021/08/18 10:42:44;;;;;;;11.77;6.97;;;;;;;31.61;30.79;96047.63;5113460;28;20084;-62
2021/08/18 10:45:18;;;;;;;11.60;6.75;;;;;;;31.58;32.19;96054.28;5110104;28;20040;-62
2021/08/18 10:47:44;;;;;;;13.95;6.78;;;;;;;31.56;30.87;96050.09;5113347;28;20040;-60
2021/08/18 10:50:12;;;;;;;9.93;6.68;;;;;;;31.54;30.99;96047.59;5113403;28;20152;-63
2021/08/18 10:52:41;;;;;;;10.52;6.68;;;;;;;31.69;31.10;96036.63;5113297;28;20512;-61
2021/08/18 10:55:11;;;;;;;9.65;5.97;;;;;;;31.78;30.21;96032.69;5113304;28;20472;-61
2021/08/18 10:57:44;;;;;;;9.10;6.50;;;;;;;31.89;30.78;96030.41;5113250;28;20028;-62
2021/08/18 11:00:12;;;;;;;10.38;6.30;;;;;;;32.07;31.99;96018.19;5113301;28;20263;-63
2021/08/18 11:02:59;;;;;;;11.75;6.35;;;;;;;32.04;30.86;96022.13;5113301;28;20052;-63
2021/08/18 11:05:27;;;;;;;10.95;7.05;;;;;;;32.05;30.98;96018.38;5113158;28;20062;-61
2021/08/18 11:07:59;;;;;;;8.73;6.65;;;;;;;32.14;31.49;96013.59;5113145;28;20024;-60
2021/08/18 11:10:25;;;;;;;15.07;7.18;;;;;;;32.30;31.92;96015.06;5112760;28;20167;-60
2021/08/18 11:12:55;;;;;;;10.40;6.85;;;;;;;32.38;32.27;96012.13;5113202;28;20044;-61
2021/08/18 11:15:21;;;;;;;18.67;7.60;;;;;;;32.44;33.61;96009.63;5113101;28;20027;-63
2021/08/18 11:17:49;;;;;;;16.98;8.07;;;;;;;32.47;34.56;96004.63;5113170;28;20020;-61
2021/08/18 11:20:20;;;;;;;13.95;7.55;;;;;;;32.67;33.92;96009.19;5113014;28;20038;-62
2021/08/18 11:22:52;;;;;;;7.55;5.93;;;;;;;32.60;29.64;96003.78;5112952;28;20019;-62
2021/08/18 11:25:19;;;;;;;13.05;6.45;;;;;;;32.40;30.62;95996.53;5113066;28;20023;-62
2021/08/18 11:27:49;;;;;;;14.80;6.85;;;;;;;32.38;31.28;95993.19;5112974;28;20040;-62
2021/08/18 11:30:15;;;;;;;8.75;6.57;;;;;;;32.32;30.61;95988.63;5113055;28;20477;-61
2021/08/18 11:32:41;;;;;;;11.18;6.72;;;;;;;32.33;30.40;95995.72;5112974;28;20465;-60